Time;durP1;ratioP1;P1;durP2;ratioP2;P2;SDS_P1;SDS_P2;PMS_P1;PMS_P2;Temp;Humidity;BMP_temperature;BMP_pressure;BME280_temperature;BME280_humidity;BME280_pressure;Samples;Min_cycle;Max_cycle;Signal;HPM_P1;HPM_P2
2023/12/01 00:00:59;;;;;;;11.20;7.77;;;;;;;;;;5082371;28;20234;-32
2023/12/01 00:03:27;;;;;;;12.80;8.40;;;;;;;;;;5082267;28;20207;-35
2023/12/01 00:05:54;;;;;;;10.17;7.33;;;;;;;;;;5089897;28;20220;-32
2023/12/01 00:08:21;;;;;;;9.60;7.00;;;;;;;;;;5072768;28;20229;-35
2023/12/01 00:10:48;;;;;;;12.63;8.43;;;;;;;;;;5090987;28;20215;-34
2023/12/01 00:13:15;;;;;;;9.50;6.57;;;;;;;;;;5077215;28;20296;-32
2023/12/01 00:15:44;;;;;;;9.47;7.30;;;;;;;;;;5080427;28;20209;-35
2023/12/01 00:18:11;;;;;;;10.33;7.57;;;;;;;;;;5092404;28;20208;-32
2023/12/01 00:20:38;;;;;;;10.20;7.20;;;;;;;;;;5082636;28;20378;-34
2023/12/01 00:23:05;;;;;;;12.90;8.70;;;;;;;;;;5086803;28;20872;-32
2023/12/01 00:25:34;;;;;;;12.63;7.97;;;;;;;;;;5073964;28;20267;-32
2023/12/01 00:28:02;;;;;;;12.40;8.90;;;;;;;;;;5083933;28;20226;-34
2023/12/01 00:30:31;;;;;;;8.90;7.10;;;;;;;;;;5071445;28;20209;-32
2023/12/01 00:33:03;;;;;;;9.33;7.07;;;;;;;;;;5079767;28;20209;-35
2023/12/01 00:35:50;;;;;;;10.70;7.10;;;;;;;;;;5086025;28;20265;-33
2023/12/01 00:38:24;;;;;;;9.97;7.63;;;;;;;;;;5078052;28;20574;-30
2023/12/01 00:40:54;;;;;;;9.30;5.97;;;;;;;;;;5078924;28;20213;-31
2023/12/01 00:43:25;;;;;;;9.70;6.60;;;;;;;;;;5082583;28;20205;-35
2023/12/01 00:45:52;;;;;;;9.17;6.97;;;;;;;;;;5081718;28;20269;-31
2023/12/01 00:48:21;;;;;;;11.27;8.07;;;;;;;;;;5090373;28;20214;-32
2023/12/01 00:50:48;;;;;;;10.80;7.77;;;;;;;;;;5088428;28;20273;-33
2023/12/01 00:53:15;;;;;;;10.03;7.50;;;;;;;;;;5075700;28;20320;-32
2023/12/01 00:55:42;;;;;;;11.53;8.53;;;;;;;;;;5077494;28;20224;-31
2023/12/01 00:58:10;;;;;;;9.30;7.23;;;;;;;;;;5078604;28;20657;-35
2023/12/01 01:00:37;;;;;;;10.37;7.17;;;;;;;;;;5077205;28;20215;-36
2023/12/01 01:03:04;;;;;;;12.50;7.40;;;;;;;;;;5080990;28;20749;-31
2023/12/01 01:05:33;;;;;;;9.63;7.60;;;;;;;;;;5088145;28;20236;-36
2023/12/01 01:08:00;;;;;;;8.57;6.77;;;;;;;;;;5073555;28;20208;-34
2023/12/01 01:10:28;;;;;;;11.43;6.77;;;;;;;;;;5087435;28;20203;-32
2023/12/01 01:12:55;;;;;;;11.40;7.13;;;;;;;;;;5077795;28;20215;-31
2023/12/01 01:15:22;;;;;;;9.23;7.30;;;;;;;;;;5078077;28;20312;-34
2023/12/01 01:17:50;;;;;;;9.33;6.93;;;;;;;;;;5082817;28;20205;-41
2023/12/01 01:20:17;;;;;;;11.40;7.67;;;;;;;;;;5086830;28;20405;-33
2023/12/01 01:22:46;;;;;;;10.53;7.00;;;;;;;;;;5080351;28;20213;-37
2023/12/01 01:25:13;;;;;;;11.43;7.77;;;;;;;;;;5087331;28;20217;-37
2023/12/01 01:27:41;;;;;;;8.47;6.33;;;;;;;;;;5090426;28;20216;-31
2023/12/01 01:30:08;;;;;;;8.00;6.20;;;;;;;;;;5079664;28;20216;-34
2023/12/01 01:32:35;;;;;;;11.53;6.83;;;;;;;;;;5094878;28;20228;-34
2023/12/01 01:35:03;;;;;;;8.70;6.53;;;;;;;;;;5089585;28;20236;-32
2023/12/01 01:37:30;;;;;;;8.77;6.47;;;;;;;;;;5079745;28;20205;-35
2023/12/01 01:39:59;;;;;;;10.53;7.27;;;;;;;;;;5088023;28;20437;-31
2023/12/01 01:42:26;;;;;;;10.53;7.23;;;;;;;;;;5089066;28;20303;-33
2023/12/01 01:44:53;;;;;;;9.17;6.77;;;;;;;;;;5080037;28;20225;-37
2023/12/01 01:47:20;;;;;;;10.43;7.10;;;;;;;;;;5087606;28;20226;-33
2023/12/01 01:49:47;;;;;;;10.90;6.43;;;;;;;;;;5086153;28;20302;-33
2023/12/01 01:52:15;;;;;;;9.87;6.67;;;;;;;;;;5082743;28;20294;-35
2023/12/01 01:54:43;;;;;;;10.70;7.30;;;;;;;;;;5082700;28;20222;-30
2023/12/01 01:57:11;;;;;;;9.40;6.83;;;;;;;;;;5076223;28;20301;-34
2023/12/01 01:59:38;;;;;;;8.80;6.37;;;;;;;;;;5078339;28;20303;-32
2023/12/01 02:02:06;;;;;;;9.47;7.03;;;;;;;;;;5086203;28;20312;-35
2023/12/01 02:04:33;;;;;;;9.27;6.50;;;;;;;;;;5098064;28;20310;-34
2023/12/01 02:07:01;;;;;;;8.90;6.53;;;;;;;;;;5084795;28;20305;-32
2023/12/01 02:09:28;;;;;;;9.50;7.37;;;;;;;;;;5083238;28;20232;-34
2023/12/01 02:11:55;;;;;;;10.13;6.87;;;;;;;;;;5089983;28;20209;-34
2023/12/01 02:14:24;;;;;;;9.63;7.27;;;;;;;;;;5079819;28;20225;-33
2023/12/01 02:16:51;;;;;;;10.60;7.20;;;;;;;;;;5081791;28;20239;-33
2023/12/01 02:19:19;;;;;;;9.47;6.73;;;;;;;;;;5084630;28;20577;-34
2023/12/01 02:21:48;;;;;;;8.67;6.53;;;;;;;;;;5088259;28;20223;-38
2023/12/01 02:24:15;;;;;;;8.73;6.53;;;;;;;;;;5074189;28;20296;-31
2023/12/01 02:26:42;;;;;;;10.90;7.17;;;;;;;;;;5094735;28;20238;-32
2023/12/01 02:29:09;;;;;;;11.43;7.77;;;;;;;;;;5082626;28;20458;-36
2023/12/01 02:31:36;;;;;;;10.33;7.27;;;;;;;;;;5083272;28;20265;-32
2023/12/01 02:34:04;;;;;;;11.43;7.10;;;;;;;;;;5084850;28;20305;-37
2023/12/01 02:36:31;;;;;;;11.90;7.47;;;;;;;;;;5085231;28;20200;-34
2023/12/01 02:39:01;;;;;;;10.23;7.13;;;;;;;;;;5085664;28;20211;-34
2023/12/01 02:41:29;;;;;;;8.07;6.60;;;;;;;;;;5097003;28;20247;-35
2023/12/01 02:43:56;;;;;;;8.63;6.77;;;;;;;;;;5074255;28;20217;-35
2023/12/01 02:46:23;;;;;;;7.93;5.93;;;;;;;;;;5079283;28;20673;-32
2023/12/01 02:48:51;;;;;;;9.07;6.73;;;;;;;;;;5079714;28;20200;-31
2023/12/01 02:51:18;;;;;;;10.73;8.00;;;;;;;;;;5092490;28;20204;-35
2023/12/01 02:53:45;;;;;;;9.40;7.00;;;;;;;;;;5086684;28;20228;-34
2023/12/01 02:56:14;;;;;;;10.30;7.47;;;;;;;;;;5083364;28;20212;-36
2023/12/01 02:58:41;;;;;;;9.93;7.57;;;;;;;;;;5095775;28;20240;-35
2023/12/01 03:01:08;;;;;;;10.07;7.47;;;;;;;;;;5079249;28;20215;-30
2023/12/01 03:03:34;;;;;;;14.13;7.37;;;;;;;;;;5099619;28;20300;-34
2023/12/01 03:06:02;;;;;;;9.23;6.67;;;;;;;;;;5098515;28;20288;-31
2023/12/01 03:08:29;;;;;;;9.43;6.83;;;;;;;;;;5083813;28;20279;-33
2023/12/01 03:10:56;;;;;;;11.00;6.83;;;;;;;;;;5089173;28;20300;-31
2023/12/01 03:13:24;;;;;;;8.93;6.23;;;;;;;;;;5071607;28;20205;-30
2023/12/01 03:15:52;;;;;;;10.47;6.80;;;;;;;;;;5082664;28;20731;-37
2023/12/01 03:18:20;;;;;;;9.03;7.17;;;;;;;;;;5089845;28;20287;-32
2023/12/01 03:20:47;;;;;;;10.00;7.00;;;;;;;;;;5091419;28;20300;-32
2023/12/01 03:23:14;;;;;;;9.17;7.10;;;;;;;;;;5079464;28;20209;-34
2023/12/01 03:25:42;;;;;;;9.43;6.80;;;;;;;;;;5092667;28;20225;-30
2023/12/01 03:28:09;;;;;;;8.33;6.43;;;;;;;;;;5081995;28;20211;-32
2023/12/01 03:30:37;;;;;;;10.60;7.23;;;;;;;;;;5087066;28;20211;-35
2023/12/01 03:33:05;;;;;;;9.83;6.70;;;;;;;;;;5088816;28;20276;-35
2023/12/01 03:35:32;;;;;;;10.10;6.97;;;;;;;;;;5086189;28;20245;-37
2023/12/01 03:37:59;;;;;;;10.10;6.60;;;;;;;;;;5078957;28;20300;-36
2023/12/01 03:40:26;;;;;;;7.97;6.23;;;;;;;;;;5089673;28;20295;-32
2023/12/01 03:42:54;;;;;;;8.47;6.07;;;;;;;;;;5084483;28;20220;-32
2023/12/01 03:45:21;;;;;;;7.90;5.70;;;;;;;;;;5075266;28;20677;-30
2023/12/01 03:47:51;;;;;;;7.87;5.97;;;;;;;;;;5081991;28;20230;-35
2023/12/01 03:50:19;;;;;;;9.37;6.83;;;;;;;;;;5100538;28;20338;-34
2023/12/01 03:52:48;;;;;;;9.47;6.60;;;;;;;;;;5073456;28;20210;-32
2023/12/01 03:55:15;;;;;;;9.93;6.40;;;;;;;;;;5093419;28;20318;-36
2023/12/01 03:57:43;;;;;;;9.17;6.73;;;;;;;;;;5089197;28;20214;-37
2023/12/01 04:00:14;;;;;;;10.20;7.07;;;;;;;;;;5077920;28;20208;-36
2023/12/01 04:02:41;;;;;;;9.93;6.70;;;;;;;;;;5074189;28;20227;-32
2023/12/01 04:05:16;;;;;;;8.40;6.33;;;;;;;;;;5106282;28;20235;-32
2023/12/01 04:07:45;;;;;;;9.23;6.23;;;;;;;;;;5088286;28;20223;-33
2023/12/01 04:10:12;;;;;;;11.87;7.77;;;;;;;;;;5090411;28;20208;-33
2023/12/01 04:12:44;;;;;;;10.13;7.10;;;;;;;;;;5100067;28;20758;-31
2023/12/01 04:15:13;;;;;;;9.40;6.40;;;;;;;;;;5076015;28;20289;-31
2023/12/01 04:17:42;;;;;;;9.63;6.60;;;;;;;;;;5091401;28;20200;-33
2023/12/01 04:20:20;;;;;;;7.23;5.57;;;;;;;;;;5089164;28;20212;-34
2023/12/01 04:22:48;;;;;;;8.77;6.37;;;;;;;;;;5075889;28;20204;-35
2023/12/01 04:25:15;;;;;;;9.30;7.00;;;;;;;;;;5085983;28;20232;-32
2023/12/01 04:27:42;;;;;;;10.87;6.37;;;;;;;;;;5104527;28;20236;-34
2023/12/01 04:30:14;;;;;;;9.77;6.97;;;;;;;;;;5079165;28;20204;-32
2023/12/01 04:32:41;;;;;;;10.03;7.60;;;;;;;;;;5099505;28;20353;-37
2023/12/01 04:35:10;;;;;;;11.30;7.47;;;;;;;;;;5107006;28;20284;-35
2023/12/01 04:37:39;;;;;;;9.97;7.20;;;;;;;;;;5085204;28;20208;-37
2023/12/01 04:40:13;;;;;;;9.10;6.73;;;;;;;;;;5091356;28;20294;-35
2023/12/01 04:42:40;;;;;;;9.83;6.73;;;;;;;;;;5104562;28;20239;-30
2023/12/01 04:45:11;;;;;;;11.73;7.53;;;;;;;;;;5066696;28;20236;-35
2023/12/01 04:47:38;;;;;;;11.13;7.17;;;;;;;;;;5085422;28;20233;-32
2023/12/01 04:50:12;;;;;;;10.73;7.13;;;;;;;;;;5094493;28;20209;-31
2023/12/01 04:52:40;;;;;;;9.30;7.00;;;;;;;;;;5086822;28;20204;-32
2023/12/01 04:55:08;;;;;;;9.10;6.93;;;;;;;;;;5087369;28;20231;-29
2023/12/01 04:57:35;;;;;;;9.63;7.23;;;;;;;;;;5093508;28;20207;-33
2023/12/01 05:00:18;;;;;;;11.37;7.63;;;;;;;;;;5083681;28;20208;-33
2023/12/01 05:02:45;;;;;;;11.20;7.43;;;;;;;;;;5091055;28;20219;-30
2023/12/01 05:05:13;;;;;;;11.63;7.87;;;;;;;;;;5100137;28;20230;-35
2023/12/01 05:07:41;;;;;;;12.03;7.40;;;;;;;;;;5087513;28;20693;-33
2023/12/01 05:10:14;;;;;;;9.10;6.53;;;;;;;;;;5091124;28;20204;-33
2023/12/01 05:12:41;;;;;;;11.23;7.03;;;;;;;;;;5081117;28;20212;-35
2023/12/01 05:15:15;;;;;;;11.63;6.80;;;;;;;;;;5073181;28;20220;-35
2023/12/01 05:17:42;;;;;;;9.73;7.10;;;;;;;;;;5077363;28;20262;-32
2023/12/01 05:20:15;;;;;;;12.07;6.97;;;;;;;;;;5101852;28;20282;-34
2023/12/01 05:22:44;;;;;;;9.20;6.87;;;;;;;;;;5077344;28;20299;-36
2023/12/01 05:25:13;;;;;;;10.77;7.00;;;;;;;;;;5078591;28;20227;-32
2023/12/01 05:27:41;;;;;;;11.30;7.53;;;;;;;;;;5088585;28;20244;-34
2023/12/01 05:30:12;;;;;;;12.17;8.23;;;;;;;;;;5078357;28;20205;-34
2023/12/01 05:32:39;;;;;;;12.70;8.30;;;;;;;;;;5093841;28;20208;-36
2023/12/01 05:35:10;;;;;;;10.17;7.20;;;;;;;;;;5107821;28;20292;-35
2023/12/01 05:37:37;;;;;;;10.00;6.47;;;;;;;;;;5086405;28;20301;-32
2023/12/01 05:40:08;;;;;;;11.87;7.90;;;;;;;;;;5099828;28;20208;-33
2023/12/01 05:42:36;;;;;;;8.80;6.63;;;;;;;;;;5083537;28;20231;-34
2023/12/01 05:45:03;;;;;;;12.47;7.90;;;;;;;;;;5080174;28;20228;-30
2023/12/01 05:47:30;;;;;;;11.43;8.30;;;;;;;;;;5074563;28;20220;-36
2023/12/01 05:49:57;;;;;;;11.30;7.17;;;;;;;;;;5102616;28;20215;-40
2023/12/01 05:52:24;;;;;;;8.70;6.47;;;;;;;;;;5088918;28;20209;-30
2023/12/01 05:54:52;;;;;;;10.03;7.73;;;;;;;;;;5089744;28;20228;-31
2023/12/01 05:57:21;;;;;;;10.80;6.93;;;;;;;;;;5097833;28;20203;-32
2023/12/01 05:59:48;;;;;;;9.57;6.73;;;;;;;;;;5080297;28;20201;-33
2023/12/01 06:02:16;;;;;;;11.37;7.80;;;;;;;;;;5085412;28;20208;-32
2023/12/01 06:04:43;;;;;;;9.33;7.10;;;;;;;;;;5074818;28;20229;-34
2023/12/01 06:07:11;;;;;;;9.80;6.57;;;;;;;;;;5085935;28;20305;-32
2023/12/01 06:09:38;;;;;;;10.40;7.33;;;;;;;;;;5084788;28;20214;-35
2023/12/01 06:12:05;;;;;;;9.10;6.13;;;;;;;;;;5111302;28;20200;-36
2023/12/01 06:14:34;;;;;;;11.57;7.90;;;;;;;;;;5078996;28;20225;-33
2023/12/01 06:17:04;;;;;;;13.17;8.20;;;;;;;;;;5074672;28;20296;-32
2023/12/01 06:19:32;;;;;;;10.60;7.47;;;;;;;;;;5092006;28;20208;-37
2023/12/01 06:21:59;;;;;;;12.37;7.67;;;;;;;;;;5087446;28;20207;-38
2023/12/01 06:24:27;;;;;;;10.70;7.50;;;;;;;;;;5087643;28;20225;-36
2023/12/01 06:26:56;;;;;;;10.73;7.23;;;;;;;;;;5097353;28;20219;-34
2023/12/01 06:29:24;;;;;;;9.67;6.90;;;;;;;;;;5096753;28;20208;-32
2023/12/01 06:31:52;;;;;;;12.73;8.03;;;;;;;;;;5083790;28;20660;-32
2023/12/01 06:34:20;;;;;;;12.23;8.20;;;;;;;;;;5091700;28;20215;-32
2023/12/01 06:36:47;;;;;;;13.47;8.17;;;;;;;;;;5103790;28;20197;-33
2023/12/01 06:39:14;;;;;;;13.20;8.60;;;;;;;;;;5082660;28;20205;-34
2023/12/01 06:41:42;;;;;;;12.77;8.20;;;;;;;;;;5090989;28;20232;-33
2023/12/01 06:44:09;;;;;;;12.57;7.83;;;;;;;;;;5069245;28;20236;-31
2023/12/01 06:46:36;;;;;;;11.73;8.53;;;;;;;;;;5094574;28;20200;-29
2023/12/01 06:49:05;;;;;;;9.97;7.40;;;;;;;;;;5110915;28;20214;-32
2023/12/01 06:51:32;;;;;;;10.60;8.27;;;;;;;;;;5096975;28;20212;-36
2023/12/01 06:54:00;;;;;;;12.47;7.87;;;;;;;;;;5074322;28;20229;-32
2023/12/01 06:56:27;;;;;;;14.67;8.43;;;;;;;;;;5103753;28;20205;-33
2023/12/01 06:58:55;;;;;;;11.73;7.40;;;;;;;;;;5089630;28;20201;-37
2023/12/01 07:01:22;;;;;;;9.17;6.40;;;;;;;;;;5086703;28;20201;-35
2023/12/01 07:03:49;;;;;;;11.33;6.93;;;;;;;;;;5085299;28;20239;-36
2023/12/01 07:06:19;;;;;;;14.10;8.67;;;;;;;;;;5084891;28;20219;-34
2023/12/01 07:08:46;;;;;;;9.80;7.03;;;;;;;;;;5080834;28;20221;-32
2023/12/01 07:11:16;;;;;;;10.43;7.40;;;;;;;;;;5099280;28;20231;-36
2023/12/01 07:13:43;;;;;;;14.57;8.23;;;;;;;;;;5077415;28;20614;-34
2023/12/01 07:16:19;;;;;;;11.00;7.73;;;;;;;;;;5098948;28;20200;-33
2023/12/01 07:18:46;;;;;;;9.80;7.37;;;;;;;;;;5105382;28;20271;-35
2023/12/01 07:21:13;;;;;;;13.87;7.77;;;;;;;;;;5111801;28;20367;-35
2023/12/01 07:23:49;;;;;;;9.27;7.30;;;;;;;;;;5085323;28;20252;-35
2023/12/01 07:26:16;;;;;;;11.43;8.70;;;;;;;;;;5088437;28;20199;-33
2023/12/01 07:28:49;;;;;;;9.10;6.73;;;;;;;;;;5091306;28;20232;-32
2023/12/01 07:31:17;;;;;;;11.50;7.77;;;;;;;;;;5089429;28;20204;-33
2023/12/01 07:33:44;;;;;;;11.73;7.20;;;;;;;;;;5084416;28;20315;-38
2023/12/01 07:36:12;;;;;;;9.20;6.37;;;;;;;;;;5090869;28;20212;-35
2023/12/01 07:38:39;;;;;;;11.13;7.53;;;;;;;;;;5087599;28;20200;-35
2023/12/01 07:41:12;;;;;;;8.87;7.40;;;;;;;;;;5075450;28;20197;-34
2023/12/01 07:43:41;;;;;;;11.30;7.67;;;;;;;;;;5095027;28;20799;-31
2023/12/01 07:46:08;;;;;;;9.60;7.63;;;;;;;;;;5080883;28;20208;-36
2023/12/01 07:48:35;;;;;;;10.43;7.43;;;;;;;;;;5087440;28;20235;-32
2023/12/01 07:51:02;;;;;;;11.03;6.67;;;;;;;;;;5089552;28;20293;-31
2023/12/01 07:53:29;;;;;;;8.43;6.40;;;;;;;;;;5076770;28;20211;-31
2023/12/01 07:55:58;;;;;;;9.90;6.67;;;;;;;;;;5087274;28;20211;-32
2023/12/01 07:58:27;;;;;;;10.33;6.73;;;;;;;;;;5082866;28;20339;-33
2023/12/01 08:00:57;;;;;;;7.97;6.40;;;;;;;;;;5093940;28;20295;-34
2023/12/01 08:03:24;;;;;;;7.00;6.13;;;;;;;;;;5089641;28;20300;-31
2023/12/01 08:05:52;;;;;;;7.97;6.10;;;;;;;;;;5086195;28;20272;-31
2023/12/01 08:08:19;;;;;;;7.13;5.23;;;;;;;;;;5091846;28;20224;-29
2023/12/01 08:10:46;;;;;;;7.83;5.63;;;;;;;;;;5078610;28;20204;-35
2023/12/01 08:13:13;;;;;;;8.10;5.93;;;;;;;;;;5087811;28;20201;-34
2023/12/01 08:15:41;;;;;;;8.23;5.23;;;;;;;;;;5071470;28;20217;-35
2023/12/01 08:18:15;;;;;;;7.83;5.97;;;;;;;;;;5074043;28;20208;-35
2023/12/01 08:20:42;;;;;;;8.10;5.43;;;;;;;;;;5105480;28;20209;-31
2023/12/01 08:23:10;;;;;;;8.03;5.47;;;;;;;;;;5076559;28;20268;-35
2023/12/01 08:25:37;;;;;;;6.10;5.43;;;;;;;;;;5085515;28;20221;-33
2023/12/01 08:28:04;;;;;;;7.53;5.43;;;;;;;;;;5078289;28;20212;-35
2023/12/01 08:30:32;;;;;;;6.23;5.30;;;;;;;;;;5094646;28;20208;-35
2023/12/01 08:33:00;;;;;;;9.00;5.30;;;;;;;;;;5085943;28;20220;-34
2023/12/01 08:35:27;;;;;;;6.60;5.03;;;;;;;;;;5081036;28;20230;-35
2023/12/01 08:37:54;;;;;;;5.77;4.93;;;;;;;;;;5098155;28;20203;-35
2023/12/01 08:40:22;;;;;;;6.37;5.33;;;;;;;;;;5076139;28;20235;-33
2023/12/01 08:42:52;;;;;;;6.10;5.03;;;;;;;;;;5087688;28;20201;-34
2023/12/01 08:45:19;;;;;;;5.10;4.67;;;;;;;;;;5074663;28;20217;-33
2023/12/01 08:47:56;;;;;;;7.17;5.10;;;;;;;;;;5080676;28;20215;-35
2023/12/01 08:50:25;;;;;;;6.10;4.50;;;;;;;;;;5085954;28;20274;-30
2023/12/01 08:52:52;;;;;;;6.77;5.00;;;;;;;;;;5079659;28;20204;-37
2023/12/01 08:55:22;;;;;;;7.07;4.87;;;;;;;;;;5083728;28;20221;-35
2023/12/01 08:57:49;;;;;;;7.70;5.13;;;;;;;;;;5086166;28;20662;-33
2023/12/01 09:00:20;;;;;;;5.80;4.70;;;;;;;;;;5088366;28;20200;-32
2023/12/01 09:02:47;;;;;;;6.03;4.50;;;;;;;;;;5080957;28;20736;-32
2023/12/01 09:05:17;;;;;;;6.10;4.43;;;;;;;;;;5093068;28;20220;-32
2023/12/01 09:07:46;;;;;;;6.93;5.73;;;;;;;;;;5082321;28;20604;-31
2023/12/01 09:10:15;;;;;;;7.53;6.17;;;;;;;;;;5082539;28;20236;-31
2023/12/01 09:12:42;;;;;;;8.17;5.73;;;;;;;;;;5081852;28;20208;-37
2023/12/01 09:15:10;;;;;;;8.17;5.97;;;;;;;;;;5085976;28;20655;-34
2023/12/01 09:17:37;;;;;;;10.03;7.80;;;;;;;;;;5093827;28;20207;-31
2023/12/01 09:20:08;;;;;;;10.07;6.83;;;;;;;;;;5088607;28;20292;-35
2023/12/01 09:22:36;;;;;;;8.77;6.10;;;;;;;;;;5087364;28;20209;-38
2023/12/01 09:25:05;;;;;;;9.43;6.47;;;;;;;;;;5073943;28;20225;-33
2023/12/01 09:27:32;;;;;;;7.10;5.37;;;;;;;;;;5074142;28;20206;-29
2023/12/01 09:29:59;;;;;;;6.33;5.10;;;;;;;;;;5074791;28;20205;-39
2023/12/01 09:32:26;;;;;;;9.03;6.57;;;;;;;;;;5087025;28;20208;-32
2023/12/01 09:34:53;;;;;;;7.40;6.23;;;;;;;;;;5101332;28;20225;-35
2023/12/01 09:37:20;;;;;;;7.47;5.97;;;;;;;;;;5079363;28;20209;-35
2023/12/01 09:39:47;;;;;;;5.67;5.07;;;;;;;;;;5086645;28;20205;-31
2023/12/01 09:42:17;;;;;;;8.80;6.10;;;;;;;;;;5078878;28;20205;-29
2023/12/01 09:44:44;;;;;;;6.27;5.60;;;;;;;;;;5072774;28;20235;-34
2023/12/01 09:47:13;;;;;;;10.47;6.93;;;;;;;;;;5090111;28;20197;-36
2023/12/01 09:49:40;;;;;;;9.87;6.50;;;;;;;;;;5092440;28;20230;-34
2023/12/01 09:52:07;;;;;;;8.53;6.40;;;;;;;;;;5099147;28;20236;-35
2023/12/01 09:54:35;;;;;;;7.23;6.07;;;;;;;;;;5075670;28;20282;-34
2023/12/01 09:57:04;;;;;;;9.93;6.37;;;;;;;;;;5100731;28;20279;-33
2023/12/01 09:59:33;;;;;;;8.57;6.50;;;;;;;;;;5092181;28;20197;-31
2023/12/01 10:02:00;;;;;;;5.93;5.13;;;;;;;;;;5104897;28;20196;-32
2023/12/01 10:04:28;;;;;;;7.83;6.47;;;;;;;;;;5086066;28;20236;-33
2023/12/01 10:06:55;;;;;;;7.00;5.73;;;;;;;;;;5091495;28;20200;-33
2023/12/01 10:09:27;;;;;;;10.97;9.00;;;;;;;;;;5084955;28;20251;-32
2023/12/01 10:12:06;;;;;;;11.40;6.30;;;;;;;;;;5091090;28;20204;-32
2023/12/01 10:14:34;;;;;;;7.77;6.50;;;;;;;;;;5084687;28;20282;-34
2023/12/01 10:17:05;;;;;;;15.83;10.07;;;;;;;;;;5103162;28;20207;-35
2023/12/01 10:19:33;;;;;;;7.27;6.13;;;;;;;;;;5113452;28;20289;-33
2023/12/01 10:22:00;;;;;;;9.40;6.63;;;;;;;;;;5104889;28;20216;-33
2023/12/01 10:24:27;;;;;;;9.47;6.13;;;;;;;;;;5082273;28;20228;-35
2023/12/01 10:26:55;;;;;;;8.77;6.27;;;;;;;;;;5084107;28;20287;-34
2023/12/01 10:29:29;;;;;;;6.67;5.93;;;;;;;;;;5083474;28;20333;-32
2023/12/01 10:31:58;;;;;;;6.77;6.00;;;;;;;;;;5093722;28;20236;-34
2023/12/01 10:34:26;;;;;;;11.57;7.13;;;;;;;;;;5093234;28;20235;-30
2023/12/01 10:36:53;;;;;;;13.93;9.37;;;;;;;;;;5087147;28;20255;-33
2023/12/01 10:39:24;;;;;;;9.77;7.67;;;;;;;;;;5102415;28;20202;-32
2023/12/01 10:41:51;;;;;;;9.93;7.60;;;;;;;;;;5076458;28;20254;-31
2023/12/01 10:44:19;;;;;;;11.20;8.03;;;;;;;;;;5077178;28;20224;-35
2023/12/01 10:46:47;;;;;;;15.37;8.03;;;;;;;;;;5093318;28;20892;-32
2023/12/01 10:49:17;;;;;;;8.97;7.03;;;;;;;;;;5112766;28;20228;-32
2023/12/01 10:51:44;;;;;;;11.63;6.90;;;;;;;;;;5095042;28;20542;-36
2023/12/01 10:54:12;;;;;;;9.87;7.40;;;;;;;;;;5077327;28;20221;-32
2023/12/01 10:56:43;;;;;;;10.70;7.27;;;;;;;;;;5088066;28;20291;-33
2023/12/01 10:59:11;;;;;;;11.90;7.40;;;;;;;;;;5088247;28;20211;-36
2023/12/01 11:01:40;;;;;;;9.77;7.10;;;;;;;;;;5078106;28;20285;-34
2023/12/01 11:04:07;;;;;;;11.83;7.90;;;;;;;;;;5084381;28;20273;-30
2023/12/01 11:06:45;;;;;;;11.90;8.07;;;;;;;;;;5098590;28;20208;-39
2023/12/01 11:09:18;;;;;;;10.07;8.07;;;;;;;;;;5078752;28;20213;-37
2023/12/01 11:11:53;;;;;;;10.53;7.17;;;;;;;;;;5088289;28;20218;-36
2023/12/01 11:14:22;;;;;;;10.80;7.30;;;;;;;;;;5079437;28;20224;-34
2023/12/01 11:16:50;;;;;;;12.90;8.20;;;;;;;;;;5096448;28;20216;-37
2023/12/01 11:19:18;;;;;;;9.17;7.20;;;;;;;;;;5097796;28;20229;-35
2023/12/01 11:21:50;;;;;;;11.87;7.23;;;;;;;;;;5111732;28;20214;-30
2023/12/01 11:24:24;;;;;;;10.10;7.37;;;;;;;;;;5096429;28;20270;-34
2023/12/01 11:26:53;;;;;;;14.23;7.93;;;;;;;;;;5093204;28;20205;-35
2023/12/01 11:29:28;;;;;;;12.53;8.83;;;;;;;;;;5076774;28;20312;-34
2023/12/01 11:31:57;;;;;;;9.33;7.80;;;;;;;;;;5097922;28;20199;-29
2023/12/01 11:34:25;;;;;;;12.77;7.73;;;;;;;;;;5098233;28;20290;-32
2023/12/01 11:36:54;;;;;;;10.40;7.70;;;;;;;;;;5088354;28;20244;-33
2023/12/01 11:39:23;;;;;;;11.40;7.97;;;;;;;;;;5085355;28;20204;-32
2023/12/01 11:41:57;;;;;;;12.37;9.23;;;;;;;;;;5100903;28;20216;-34
2023/12/01 11:44:27;;;;;;;13.00;8.80;;;;;;;;;;5080312;28;20240;-34
2023/12/01 11:46:59;;;;;;;15.00;8.37;;;;;;;;;;5080092;28;20240;-36
2023/12/01 11:49:27;;;;;;;8.47;6.90;;;;;;;;;;5093115;28;20249;-34
2023/12/01 11:51:55;;;;;;;8.40;6.77;;;;;;;;;;5084082;28;20213;-37
2023/12/01 11:54:23;;;;;;;8.70;7.13;;;;;;;;;;5079394;28;20217;-35
2023/12/01 11:56:51;;;;;;;9.80;6.30;;;;;;;;;;5088686;28;20209;-33
2023/12/01 11:59:19;;;;;;;8.30;6.10;;;;;;;;;;5083208;28;20288;-39
2023/12/01 12:01:48;;;;;;;10.20;6.17;;;;;;;;;;5093147;28;20271;-33
2023/12/01 12:04:16;;;;;;;9.87;7.83;;;;;;;;;;5091745;28;20324;-34
2023/12/01 12:06:44;;;;;;;10.07;7.43;;;;;;;;;;5078717;28;20209;-33
2023/12/01 12:09:17;;;;;;;11.10;7.93;;;;;;;;;;5074837;28;20229;-36
2023/12/01 12:11:45;;;;;;;11.13;7.40;;;;;;;;;;5088862;28;20253;-38
2023/12/01 12:14:15;;;;;;;11.10;6.63;;;;;;;;;;5082581;28;20275;-32
2023/12/01 12:16:44;;;;;;;8.13;6.67;;;;;;;;;;5070479;28;20228;-40
2023/12/01 12:19:12;;;;;;;8.53;6.20;;;;;;;;;;5075599;28;20197;-32
2023/12/01 12:21:39;;;;;;;9.80;6.70;;;;;;;;;;5086661;28;20213;-37
2023/12/01 12:24:06;;;;;;;6.83;5.00;;;;;;;;;;5078634;28;20296;-36
2023/12/01 12:26:35;;;;;;;6.53;4.53;;;;;;;;;;5077967;28;20250;-29
2023/12/01 12:29:03;;;;;;;7.20;5.13;;;;;;;;;;5076821;28;20221;-34
2023/12/01 12:31:51;;;;;;;6.80;4.30;;;;;;;;;;5077619;28;20247;-38
2023/12/01 12:34:18;;;;;;;6.37;4.90;;;;;;;;;;5080304;28;20224;-32
2023/12/01 12:36:46;;;;;;;6.83;5.33;;;;;;;;;;5091611;28;20220;-36
2023/12/01 12:39:16;;;;;;;6.07;5.13;;;;;;;;;;5077265;28;20189;-32
2023/12/01 12:41:52;;;;;;;4.87;4.37;;;;;;;;;;5090499;28;20205;-34
2023/12/01 12:44:20;;;;;;;6.40;5.07;;;;;;;;;;5083480;28;20231;-33
2023/12/01 12:46:58;;;;;;;5.60;4.47;;;;;;;;;;5086064;28;20215;-31
2023/12/01 12:49:27;;;;;;;6.07;4.73;;;;;;;;;;5089979;28;20224;-34
2023/12/01 12:51:54;;;;;;;5.83;4.20;;;;;;;;;;5094842;28;20196;-35
2023/12/01 12:54:22;;;;;;;5.60;4.33;;;;;;;;;;5080453;28;20630;-29
2023/12/01 12:56:50;;;;;;;5.10;4.60;;;;;;;;;;5078346;28;20251;-32
2023/12/01 12:59:18;;;;;;;4.53;4.13;;;;;;;;;;5073930;28;20272;-36
2023/12/01 13:01:46;;;;;;;7.03;4.17;;;;;;;;;;5074146;28;20211;-36
2023/12/01 13:04:13;;;;;;;5.30;4.13;;;;;;;;;;5071973;28;20235;-31
2023/12/01 13:06:40;;;;;;;5.20;4.43;;;;;;;;;;5071149;28;20201;-31
2023/12/01 13:09:07;;;;;;;6.23;4.60;;;;;;;;;;5084231;28;20219;-34
2023/12/01 13:11:34;;;;;;;4.90;4.33;;;;;;;;;;5087544;28;20209;-32
2023/12/01 13:14:03;;;;;;;5.17;4.30;;;;;;;;;;5087458;28;20287;-35
2023/12/01 13:16:30;;;;;;;6.50;4.87;;;;;;;;;;5084855;28;20209;-34
2023/12/01 13:18:57;;;;;;;5.93;4.87;;;;;;;;;;5088415;28;20211;-39
2023/12/01 13:21:25;;;;;;;7.80;4.80;;;;;;;;;;5090824;28;20212;-35
2023/12/01 13:24:01;;;;;;;5.53;4.50;;;;;;;;;;5083362;28;20221;-34
2023/12/01 13:26:28;;;;;;;5.60;4.37;;;;;;;;;;5076063;28;20212;-29
2023/12/01 13:28:56;;;;;;;5.27;4.30;;;;;;;;;;5075786;28;20205;-32
2023/12/01 13:31:24;;;;;;;5.80;4.50;;;;;;;;;;5086392;28;20200;-31
2023/12/01 13:33:52;;;;;;;5.00;4.13;;;;;;;;;;5091873;28;20231;-35
2023/12/01 13:36:19;;;;;;;5.00;4.20;;;;;;;;;;5090258;28;20276;-33
2023/12/01 13:38:47;;;;;;;4.87;3.90;;;;;;;;;;5082356;28;20208;-30
2023/12/01 13:41:14;;;;;;;4.63;4.00;;;;;;;;;;5093533;28;20203;-34
2023/12/01 13:43:41;;;;;;;5.40;4.27;;;;;;;;;;5080354;28;20228;-37
2023/12/01 13:46:09;;;;;;;4.47;3.77;;;;;;;;;;5091099;28;20208;-36
2023/12/01 13:48:38;;;;;;;4.83;4.10;;;;;;;;;;5081607;28;20216;-33
2023/12/01 13:51:05;;;;;;;5.00;4.10;;;;;;;;;;5096822;28;20226;-32
2023/12/01 13:53:33;;;;;;;5.57;4.27;;;;;;;;;;5092139;28;20212;-33
2023/12/01 13:55:59;;;;;;;5.33;4.37;;;;;;;;;;5094456;28;20200;-33
2023/12/01 13:58:26;;;;;;;5.17;3.90;;;;;;;;;;5092188;28;20205;-33
2023/12/01 14:00:53;;;;;;;4.63;4.00;;;;;;;;;;5091999;28;20305;-32
2023/12/01 14:03:20;;;;;;;4.77;4.30;;;;;;;;;;5097291;28;20215;-35
2023/12/01 14:05:49;;;;;;;6.67;5.30;;;;;;;;;;5111501;28;20671;-32
2023/12/01 14:08:18;;;;;;;6.23;5.03;;;;;;;;;;5079828;28;20201;-33
2023/12/01 14:10:48;;;;;;;7.20;5.13;;;;;;;;;;5097011;28;20480;-39
2023/12/01 14:13:21;;;;;;;5.67;4.83;;;;;;;;;;5086372;28;20212;-35
2023/12/01 14:15:48;;;;;;;5.67;4.37;;;;;;;;;;5083320;28;20220;-37
2023/12/01 14:18:16;;;;;;;5.27;4.27;;;;;;;;;;5091050;28;20205;-35
2023/12/01 14:20:43;;;;;;;5.80;4.50;;;;;;;;;;5082951;28;20209;-42
2023/12/01 14:23:12;;;;;;;5.33;4.77;;;;;;;;;;5076364;28;20209;-35
2023/12/01 14:25:39;;;;;;;6.70;5.13;;;;;;;;;;5075821;28;20350;-36
2023/12/01 14:28:06;;;;;;;5.47;4.67;;;;;;;;;;5076248;28;20208;-39
2023/12/01 14:30:35;;;;;;;6.17;5.23;;;;;;;;;;5082354;28;20651;-34
2023/12/01 14:33:02;;;;;;;6.33;5.43;;;;;;;;;;5092351;28;20284;-35
2023/12/01 14:35:30;;;;;;;6.40;5.77;;;;;;;;;;5090558;28;20225;-36
2023/12/01 14:38:02;;;;;;;6.17;4.90;;;;;;;;;;5090909;28;20285;-32
2023/12/01 14:40:30;;;;;;;7.97;5.67;;;;;;;;;;5079119;28;20215;-32
2023/12/01 14:42:58;;;;;;;7.30;5.03;;;;;;;;;;5072039;28;20206;-32
2023/12/01 14:45:31;;;;;;;5.43;4.80;;;;;;;;;;5070824;28;20229;-35